sensor_id;sensor_type;location;lat;lon;timestamp;temperature;humidity
36652;DHT22;53334;51.976;20.144;2022-09-09T00:01:27;25.00;47.00
36652;DHT22;53334;51.976;20.144;2022-09-09T00:04:12;25.10;47.10
36652;DHT22;53334;51.976;20.144;2022-09-09T00:06:58;25.00;47.10
36652;DHT22;53334;51.976;20.144;2022-09-09T00:09:43;25.10;47.20
36652;DHT22;53334;51.976;20.144;2022-09-09T00:12:27;25.00;47.10
36652;DHT22;53334;51.976;20.144;2022-09-09T00:15:11;25.00;47.10
36652;DHT22;53334;51.976;20.144;2022-09-09T00:17:49;25.10;47.20
36652;DHT22;53334;51.976;20.144;2022-09-09T00:20:32;25.00;47.10
36652;DHT22;53334;51.976;20.144;2022-09-09T00:23:12;25.00;47.20
36652;DHT22;53334;51.976;20.144;2022-09-09T00:25:57;25.00;47.10
36652;DHT22;53334;51.976;20.144;2022-09-09T00:28:39;25.10;47.20
36652;DHT22;53334;51.976;20.144;2022-09-09T00:31:20;25.00;47.10
36652;DHT22;53334;51.976;20.144;2022-09-09T00:34:00;25.00;47.10
36652;DHT22;53334;51.976;20.144;2022-09-09T00:36:37;25.00;47.20
36652;DHT22;53334;51.976;20.144;2022-09-09T00:39:21;25.00;46.80
36652;DHT22;53334;51.976;20.144;2022-09-09T00:42:09;25.00;46.40
36652;DHT22;53334;51.976;20.144;2022-09-09T00:44:53;25.00;46.20
36652;DHT22;53334;51.976;20.144;2022-09-09T00:47:40;25.00;46.20
36652;DHT22;53334;51.976;20.144;2022-09-09T00:53:27;25.00;45.90
36652;DHT22;53334;51.976;20.144;2022-09-09T00:56:11;25.00;46.00
36652;DHT22;53334;51.976;20.144;2022-09-09T00:58:53;25.00;45.90
36652;DHT22;53334;51.976;20.144;2022-09-09T01:01:31;25.00;45.70
36652;DHT22;53334;51.976;20.144;2022-09-09T01:04:09;25.00;45.90
36652;DHT22;53334;51.976;20.144;2022-09-09T01:06:53;24.90;45.90
36652;DHT22;53334;51.976;20.144;2022-09-09T01:09:33;24.90;45.80
36652;DHT22;53334;51.976;20.144;2022-09-09T01:12:15;25.00;46.40
36652;DHT22;53334;51.976;20.144;2022-09-09T01:15:02;24.90;45.80
36652;DHT22;53334;51.976;20.144;2022-09-09T01:17:52;24.90;45.80
36652;DHT22;53334;51.976;20.144;2022-09-09T01:20:30;24.90;45.70
36652;DHT22;53334;51.976;20.144;2022-09-09T01:23:24;24.90;45.90
36652;DHT22;53334;51.976;20.144;2022-09-09T01:26:26;24.90;45.70
36652;DHT22;53334;51.976;20.144;2022-09-09T01:29:07;24.90;45.80
36652;DHT22;53334;51.976;20.144;2022-09-09T01:31:53;24.90;45.80
36652;DHT22;53334;51.976;20.144;2022-09-09T01:34:31;24.90;45.80
36652;DHT22;53334;51.976;20.144;2022-09-09T01:37:08;24.80;45.80
36652;DHT22;53334;51.976;20.144;2022-09-09T01:39:44;24.90;45.90
36652;DHT22;53334;51.976;20.144;2022-09-09T01:42:22;24.80;45.80
36652;DHT22;53334;51.976;20.144;2022-09-09T01:44:56;24.80;45.80
36652;DHT22;53334;51.976;20.144;2022-09-09T01:47:31;24.90;45.80
36652;DHT22;53334;51.976;20.144;2022-09-09T01:50:24;24.80;45.70
36652;DHT22;53334;51.976;20.144;2022-09-09T01:53:00;24.80;46.00
36652;DHT22;53334;51.976;20.144;2022-09-09T01:55:39;24.80;46.50
36652;DHT22;53334;51.976;20.144;2022-09-09T01:58:28;24.80;46.70
36652;DHT22;53334;51.976;20.144;2022-09-09T02:01:11;24.80;46.80
36652;DHT22;53334;51.976;20.144;2022-09-09T02:03:51;24.80;47.00
36652;DHT22;53334;51.976;20.144;2022-09-09T02:06:30;24.80;47.20
36652;DHT22;53334;51.976;20.144;2022-09-09T02:09:19;24.80;47.40
36652;DHT22;53334;51.976;20.144;2022-09-09T02:12:01;24.80;47.50
36652;DHT22;53334;51.976;20.144;2022-09-09T02:14:49;24.80;47.70
36652;DHT22;53334;51.976;20.144;2022-09-09T02:17:29;24.80;47.80
36652;DHT22;53334;51.976;20.144;2022-09-09T02:20:14;24.80;47.90
36652;DHT22;53334;51.976;20.144;2022-09-09T02:22:57;24.80;48.00
36652;DHT22;53334;51.976;20.144;2022-09-09T02:25:34;24.80;48.20
36652;DHT22;53334;51.976;20.144;2022-09-09T02:28:21;24.80;48.30
36652;DHT22;53334;51.976;20.144;2022-09-09T02:30:59;24.80;48.50
36652;DHT22;53334;51.976;20.144;2022-09-09T02:33:45;24.80;48.60
36652;DHT22;53334;51.976;20.144;2022-09-09T02:36:26;24.80;48.80
36652;DHT22;53334;51.976;20.144;2022-09-09T02:39:02;24.80;48.90
36652;DHT22;53334;51.976;20.144;2022-09-09T02:41:41;24.80;48.70
36652;DHT22;53334;51.976;20.144;2022-09-09T02:44:18;24.80;48.70
36652;DHT22;53334;51.976;20.144;2022-09-09T02:47:16;24.90;48.80
36652;DHT22;53334;51.976;20.144;2022-09-09T02:50:02;24.80;48.80
36652;DHT22;53334;51.976;20.144;2022-09-09T02:52:48;24.90;48.90
36652;DHT22;53334;51.976;20.144;2022-09-09T02:55:33;24.80;49.00
36652;DHT22;53334;51.976;20.144;2022-09-09T02:58:17;24.80;49.00
36652;DHT22;53334;51.976;20.144;2022-09-09T03:01:01;24.80;48.80
36652;DHT22;53334;51.976;20.144;2022-09-09T03:03:37;24.80;48.90
36652;DHT22;53334;51.976;20.144;2022-09-09T03:06:16;24.80;49.10
36652;DHT22;53334;51.976;20.144;2022-09-09T03:08:55;24.90;49.00
36652;DHT22;53334;51.976;20.144;2022-09-09T03:11:31;24.80;49.20
36652;DHT22;53334;51.976;20.144;2022-09-09T03:14:05;24.80;49.30
36652;DHT22;53334;51.976;20.144;2022-09-09T03:16:41;24.90;49.70
36652;DHT22;53334;51.976;20.144;2022-09-09T03:19:18;24.90;49.50
36652;DHT22;53334;51.976;20.144;2022-09-09T03:21:52;24.90;49.80
36652;DHT22;53334;51.976;20.144;2022-09-09T03:24:26;24.80;49.90
36652;DHT22;53334;51.976;20.144;2022-09-09T03:27:00;24.90;49.80
36652;DHT22;53334;51.976;20.144;2022-09-09T03:29:35;24.80;49.80
36652;DHT22;53334;51.976;20.144;2022-09-09T03:32:12;24.90;49.90
36652;DHT22;53334;51.976;20.144;2022-09-09T03:34:51;24.80;49.80
36652;DHT22;53334;51.976;20.144;2022-09-09T03:37:26;24.90;49.80
36652;DHT22;53334;51.976;20.144;2022-09-09T03:40:01;24.90;49.80
36652;DHT22;53334;51.976;20.144;2022-09-09T03:42:35;24.80;49.70
36652;DHT22;53334;51.976;20.144;2022-09-09T03:45:10;24.90;49.80
36652;DHT22;53334;51.976;20.144;2022-09-09T03:47:45;24.80;49.70
36652;DHT22;53334;51.976;20.144;2022-09-09T03:50:21;24.90;49.80
36652;DHT22;53334;51.976;20.144;2022-09-09T03:52:57;24.90;49.70
36652;DHT22;53334;51.976;20.144;2022-09-09T03:55:31;24.80;49.70
36652;DHT22;53334;51.976;20.144;2022-09-09T03:58:05;24.80;49.80
36652;DHT22;53334;51.976;20.144;2022-09-09T04:00:40;24.80;50.00
36652;DHT22;53334;51.976;20.144;2022-09-09T04:03:15;24.90;50.20
36652;DHT22;53334;51.976;20.144;2022-09-09T04:05:50;24.90;50.30
36652;DHT22;53334;51.976;20.144;2022-09-09T04:08:25;24.90;50.20
36652;DHT22;53334;51.976;20.144;2022-09-09T04:11:00;24.90;50.20
36652;DHT22;53334;51.976;20.144;2022-09-09T04:13:40;24.90;50.20
36652;DHT22;53334;51.976;20.144;2022-09-09T04:16:17;24.90;50.20
36652;DHT22;53334;51.976;20.144;2022-09-09T04:18:51;24.90;50.30
36652;DHT22;53334;51.976;20.144;2022-09-09T04:21:27;24.80;50.10
36652;DHT22;53334;51.976;20.144;2022-09-09T04:24:01;24.80;50.20
36652;DHT22;53334;51.976;20.144;2022-09-09T04:26:36;24.90;50.40
36652;DHT22;53334;51.976;20.144;2022-09-09T04:29:10;24.90;50.20
36652;DHT22;53334;51.976;20.144;2022-09-09T04:31:44;24.90;50.30
36652;DHT22;53334;51.976;20.144;2022-09-09T04:34:19;24.80;50.50
36652;DHT22;53334;51.976;20.144;2022-09-09T04:36:55;24.80;50.60
36652;DHT22;53334;51.976;20.144;2022-09-09T04:39:30;24.90;50.80
36652;DHT22;53334;51.976;20.144;2022-09-09T04:42:05;24.90;50.90
36652;DHT22;53334;51.976;20.144;2022-09-09T04:44:39;24.90;51.10
36652;DHT22;53334;51.976;20.144;2022-09-09T04:47:13;24.90;51.40
36652;DHT22;53334;51.976;20.144;2022-09-09T04:49:50;24.90;51.30
36652;DHT22;53334;51.976;20.144;2022-09-09T04:52:29;24.90;51.50
36652;DHT22;53334;51.976;20.144;2022-09-09T04:55:05;24.90;51.80
36652;DHT22;53334;51.976;20.144;2022-09-09T04:57:39;24.90;51.70
36652;DHT22;53334;51.976;20.144;2022-09-09T05:00:16;24.90;51.70
36652;DHT22;53334;51.976;20.144;2022-09-09T05:02:51;25.00;51.70
36652;DHT22;53334;51.976;20.144;2022-09-09T05:05:25;24.90;51.60
36652;DHT22;53334;51.976;20.144;2022-09-09T05:08:06;25.00;51.80
36652;DHT22;53334;51.976;20.144;2022-09-09T05:10:40;24.90;52.30
36652;DHT22;53334;51.976;20.144;2022-09-09T05:13:14;25.00;51.80
36652;DHT22;53334;51.976;20.144;2022-09-09T05:15:52;25.00;51.90
36652;DHT22;53334;51.976;20.144;2022-09-09T05:18:27;25.00;51.90
36652;DHT22;53334;51.976;20.144;2022-09-09T05:21:04;25.00;51.90
36652;DHT22;53334;51.976;20.144;2022-09-09T05:23:40;25.00;52.10
36652;DHT22;53334;51.976;20.144;2022-09-09T05:26:17;25.00;52.10
36652;DHT22;53334;51.976;20.144;2022-09-09T05:28:53;25.00;52.10
36652;DHT22;53334;51.976;20.144;2022-09-09T05:31:30;25.00;52.10
36652;DHT22;53334;51.976;20.144;2022-09-09T05:34:07;25.00;52.30
36652;DHT22;53334;51.976;20.144;2022-09-09T05:36:41;25.00;52.20
36652;DHT22;53334;51.976;20.144;2022-09-09T05:39:18;25.00;52.20
36652;DHT22;53334;51.976;20.144;2022-09-09T05:41:53;25.00;52.30
36652;DHT22;53334;51.976;20.144;2022-09-09T05:44:28;25.00;52.20
36652;DHT22;53334;51.976;20.144;2022-09-09T05:47:03;25.00;52.20
36652;DHT22;53334;51.976;20.144;2022-09-09T05:49:37;25.00;52.30
36652;DHT22;53334;51.976;20.144;2022-09-09T05:52:11;25.00;52.70
36652;DHT22;53334;51.976;20.144;2022-09-09T05:54:47;25.00;52.80
36652;DHT22;53334;51.976;20.144;2022-09-09T05:57:22;25.00;52.40
36652;DHT22;53334;51.976;20.144;2022-09-09T05:59:56;25.00;52.20
36652;DHT22;53334;51.976;20.144;2022-09-09T06:02:54;25.00;52.10
36652;DHT22;53334;51.976;20.144;2022-09-09T06:05:30;25.00;52.20
36652;DHT22;53334;51.976;20.144;2022-09-09T06:08:04;25.00;52.20
36652;DHT22;53334;51.976;20.144;2022-09-09T06:10:40;25.00;52.10
36652;DHT22;53334;51.976;20.144;2022-09-09T06:13:14;25.00;52.00
36652;DHT22;53334;51.976;20.144;2022-09-09T06:15:52;25.00;51.70
36652;DHT22;53334;51.976;20.144;2022-09-09T06:18:27;25.00;51.50
36652;DHT22;53334;51.976;20.144;2022-09-09T06:21:04;25.00;51.30
36652;DHT22;53334;51.976;20.144;2022-09-09T06:23:39;25.00;51.00
36652;DHT22;53334;51.976;20.144;2022-09-09T06:26:17;25.00;50.80
36652;DHT22;53334;51.976;20.144;2022-09-09T06:28:55;25.00;50.90
36652;DHT22;53334;51.976;20.144;2022-09-09T06:31:31;25.00;50.80
36652;DHT22;53334;51.976;20.144;2022-09-09T06:34:19;25.00;50.70
36652;DHT22;53334;51.976;20.144;2022-09-09T06:36:57;25.00;50.70
36652;DHT22;53334;51.976;20.144;2022-09-09T06:39:38;25.00;50.60
36652;DHT22;53334;51.976;20.144;2022-09-09T06:42:14;25.00;50.60
36652;DHT22;53334;51.976;20.144;2022-09-09T06:44:54;25.00;50.60
36652;DHT22;53334;51.976;20.144;2022-09-09T06:47:41;25.00;50.50
36652;DHT22;53334;51.976;20.144;2022-09-09T06:50:15;24.90;50.40
36652;DHT22;53334;51.976;20.144;2022-09-09T06:52:50;25.00;50.50
36652;DHT22;53334;51.976;20.144;2022-09-09T06:55:25;24.90;50.60
36652;DHT22;53334;51.976;20.144;2022-09-09T06:58:01;24.90;51.10
36652;DHT22;53334;51.976;20.144;2022-09-09T07:00:35;24.90;51.40
36652;DHT22;53334;51.976;20.144;2022-09-09T07:03:10;25.00;51.60
36652;DHT22;53334;51.976;20.144;2022-09-09T07:05:54;24.90;51.70
36652;DHT22;53334;51.976;20.144;2022-09-09T07:08:31;25.00;51.80
36652;DHT22;53334;51.976;20.144;2022-09-09T07:11:06;25.00;51.60
36652;DHT22;53334;51.976;20.144;2022-09-09T07:13:48;25.00;51.60
36652;DHT22;53334;51.976;20.144;2022-09-09T07:16:23;25.00;51.60
36652;DHT22;53334;51.976;20.144;2022-09-09T07:18:57;25.00;51.50
36652;DHT22;53334;51.976;20.144;2022-09-09T07:21:32;24.90;51.40
36652;DHT22;53334;51.976;20.144;2022-09-09T07:24:07;25.00;51.60
36652;DHT22;53334;51.976;20.144;2022-09-09T07:26:44;25.00;51.50
36652;DHT22;53334;51.976;20.144;2022-09-09T07:29:20;25.00;51.50
36652;DHT22;53334;51.976;20.144;2022-09-09T07:31:55;25.00;51.50
36652;DHT22;53334;51.976;20.144;2022-09-09T07:34:36;25.00;51.50
36652;DHT22;53334;51.976;20.144;2022-09-09T07:37:10;25.00;51.50
36652;DHT22;53334;51.976;20.144;2022-09-09T07:39:48;25.00;51.50
36652;DHT22;53334;51.976;20.144;2022-09-09T07:42:24;25.00;51.60
36652;DHT22;53334;51.976;20.144;2022-09-09T07:44:59;25.00;51.50
36652;DHT22;53334;51.976;20.144;2022-09-09T07:47:34;25.00;51.50
36652;DHT22;53334;51.976;20.144;2022-09-09T07:50:08;25.00;51.30
36652;DHT22;53334;51.976;20.144;2022-09-09T07:52:43;25.00;52.30
36652;DHT22;53334;51.976;20.144;2022-09-09T07:55:18;25.00;52.40
36652;DHT22;53334;51.976;20.144;2022-09-09T07:57:52;25.00;52.50
36652;DHT22;53334;51.976;20.144;2022-09-09T08:00:29;25.00;52.70
36652;DHT22;53334;51.976;20.144;2022-09-09T08:03:06;25.00;52.90
36652;DHT22;53334;51.976;20.144;2022-09-09T08:05:40;25.00;52.90
36652;DHT22;53334;51.976;20.144;2022-09-09T08:08:15;25.00;53.00
36652;DHT22;53334;51.976;20.144;2022-09-09T08:10:50;25.00;53.00
36652;DHT22;53334;51.976;20.144;2022-09-09T08:13:25;25.00;53.00
36652;DHT22;53334;51.976;20.144;2022-09-09T08:16:09;25.00;53.80
36652;DHT22;53334;51.976;20.144;2022-09-09T08:18:45;25.00;54.50
36652;DHT22;53334;51.976;20.144;2022-09-09T08:21:22;25.00;54.50
36652;DHT22;53334;51.976;20.144;2022-09-09T08:23:58;25.00;54.80
36652;DHT22;53334;51.976;20.144;2022-09-09T08:26:34;25.00;55.10
36652;DHT22;53334;51.976;20.144;2022-09-09T08:29:11;25.00;55.10
36652;DHT22;53334;51.976;20.144;2022-09-09T08:31:49;25.10;55.10
36652;DHT22;53334;51.976;20.144;2022-09-09T08:34:24;25.00;54.90
36652;DHT22;53334;51.976;20.144;2022-09-09T08:37:01;25.00;54.90
36652;DHT22;53334;51.976;20.144;2022-09-09T08:39:41;25.00;54.80
36652;DHT22;53334;51.976;20.144;2022-09-09T08:42:28;25.00;54.70
36652;DHT22;53334;51.976;20.144;2022-09-09T08:45:29;25.00;54.70
36652;DHT22;53334;51.976;20.144;2022-09-09T08:48:19;25.10;54.70
36652;DHT22;53334;51.976;20.144;2022-09-09T08:50:55;25.00;54.70
36652;DHT22;53334;51.976;20.144;2022-09-09T08:53:41;25.10;54.50
36652;DHT22;53334;51.976;20.144;2022-09-09T08:56:19;25.00;54.20
36652;DHT22;53334;51.976;20.144;2022-09-09T08:59:01;25.00;54.10
36652;DHT22;53334;51.976;20.144;2022-09-09T09:01:48;25.00;54.30
36652;DHT22;53334;51.976;20.144;2022-09-09T09:04:49;25.10;54.70
36652;DHT22;53334;51.976;20.144;2022-09-09T09:07:34;25.00;55.10
36652;DHT22;53334;51.976;20.144;2022-09-09T09:10:19;25.00;55.50
36652;DHT22;53334;51.976;20.144;2022-09-09T09:13:17;25.00;55.60
36652;DHT22;53334;51.976;20.144;2022-09-09T09:16:00;25.00;55.80
36652;DHT22;53334;51.976;20.144;2022-09-09T09:18:36;25.00;55.90
36652;DHT22;53334;51.976;20.144;2022-09-09T09:21:17;25.10;56.00
36652;DHT22;53334;51.976;20.144;2022-09-09T09:23:56;25.10;56.00
36652;DHT22;53334;51.976;20.144;2022-09-09T09:26:34;25.10;55.90
36652;DHT22;53334;51.976;20.144;2022-09-09T09:29:13;25.10;55.90
36652;DHT22;53334;51.976;20.144;2022-09-09T09:31:52;25.10;56.00
36652;DHT22;53334;51.976;20.144;2022-09-09T09:34:28;25.10;56.00
36652;DHT22;53334;51.976;20.144;2022-09-09T09:37:12;25.10;55.90
36652;DHT22;53334;51.976;20.144;2022-09-09T09:39:50;25.10;55.90
36652;DHT22;53334;51.976;20.144;2022-09-09T09:42:48;25.10;55.70
36652;DHT22;53334;51.976;20.144;2022-09-09T09:45:29;25.10;55.60
36652;DHT22;53334;51.976;20.144;2022-09-09T09:48:10;25.10;55.40
36652;DHT22;53334;51.976;20.144;2022-09-09T09:50:50;25.10;55.20
36652;DHT22;53334;51.976;20.144;2022-09-09T09:53:28;25.10;55.10
36652;DHT22;53334;51.976;20.144;2022-09-09T09:56:06;25.20;55.10
36652;DHT22;53334;51.976;20.144;2022-09-09T09:58:50;25.20;55.00
36652;DHT22;53334;51.976;20.144;2022-09-09T10:01:29;25.20;54.80
36652;DHT22;53334;51.976;20.144;2022-09-09T10:04:15;25.20;54.70
36652;DHT22;53334;51.976;20.144;2022-09-09T10:06:51;25.20;54.60
36652;DHT22;53334;51.976;20.144;2022-09-09T10:09:28;25.20;55.10
36652;DHT22;53334;51.976;20.144;2022-09-09T10:12:12;25.20;55.10
36652;DHT22;53334;51.976;20.144;2022-09-09T10:14:57;25.10;55.20
36652;DHT22;53334;51.976;20.144;2022-09-09T10:17:39;25.20;55.10
36652;DHT22;53334;51.976;20.144;2022-09-09T10:27:09;25.20;56.10
36652;DHT22;53334;51.976;20.144;2022-09-09T10:29:56;25.20;56.20
36652;DHT22;53334;51.976;20.144;2022-09-09T10:32:39;25.20;56.40
36652;DHT22;53334;51.976;20.144;2022-09-09T10:35:25;25.20;56.30
36652;DHT22;53334;51.976;20.144;2022-09-09T10:38:14;25.10;56.10
36652;DHT22;53334;51.976;20.144;2022-09-09T10:41:06;25.20;56.00
36652;DHT22;53334;51.976;20.144;2022-09-09T10:44:11;25.20;55.90
36652;DHT22;53334;51.976;20.144;2022-09-09T10:50:13;25.10;56.30
36652;DHT22;53334;51.976;20.144;2022-09-09T10:52:58;25.10;56.80
36652;DHT22;53334;51.976;20.144;2022-09-09T10:55:38;25.10;56.90
36652;DHT22;53334;51.976;20.144;2022-09-09T10:58:18;25.10;56.80
36652;DHT22;53334;51.976;20.144;2022-09-09T11:00:57;25.10;56.80
36652;DHT22;53334;51.976;20.144;2022-09-09T11:03:37;25.10;56.90
36652;DHT22;53334;51.976;20.144;2022-09-09T11:06:16;25.20;56.80
36652;DHT22;53334;51.976;20.144;2022-09-09T11:08:52;25.20;57.00
36652;DHT22;53334;51.976;20.144;2022-09-09T11:11:32;25.20;56.80
36652;DHT22;53334;51.976;20.144;2022-09-09T11:14:14;25.20;56.60
36652;DHT22;53334;51.976;20.144;2022-09-09T11:16:53;25.20;56.40
36652;DHT22;53334;51.976;20.144;2022-09-09T11:19:34;25.20;56.30
36652;DHT22;53334;51.976;20.144;2022-09-09T11:22:16;25.20;56.20
36652;DHT22;53334;51.976;20.144;2022-09-09T11:24:54;25.20;56.30
36652;DHT22;53334;51.976;20.144;2022-09-09T11:27:39;25.20;56.20
36652;DHT22;53334;51.976;20.144;2022-09-09T11:30:19;25.20;56.20
36652;DHT22;53334;51.976;20.144;2022-09-09T11:40:08;25.30;55.90
36652;DHT22;53334;51.976;20.144;2022-09-09T11:42:47;25.30;55.70
36652;DHT22;53334;51.976;20.144;2022-09-09T11:45:25;25.20;55.60
36652;DHT22;53334;51.976;20.144;2022-09-09T11:48:01;25.30;55.60
36652;DHT22;53334;51.976;20.144;2022-09-09T11:50:38;25.20;55.70
36652;DHT22;53334;51.976;20.144;2022-09-09T11:53:20;25.30;56.40
36652;DHT22;53334;51.976;20.144;2022-09-09T11:56:04;25.30;55.90
36652;DHT22;53334;51.976;20.144;2022-09-09T11:58:41;25.30;55.80
36652;DHT22;53334;51.976;20.144;2022-09-09T12:01:36;25.30;55.80
36652;DHT22;53334;51.976;20.144;2022-09-09T12:04:20;25.30;55.70
36652;DHT22;53334;51.976;20.144;2022-09-09T12:07:04;25.30;55.60
36652;DHT22;53334;51.976;20.144;2022-09-09T12:09:57;25.30;55.50
36652;DHT22;53334;51.976;20.144;2022-09-09T12:12:34;25.30;55.30
36652;DHT22;53334;51.976;20.144;2022-09-09T12:15:26;25.30;55.30
36652;DHT22;53334;51.976;20.144;2022-09-09T12:18:01;25.30;55.30
36652;DHT22;53334;51.976;20.144;2022-09-09T12:20:36;25.30;55.10
36652;DHT22;53334;51.976;20.144;2022-09-09T12:23:22;25.30;54.90
36652;DHT22;53334;51.976;20.144;2022-09-09T12:28:59;25.40;54.90
36652;DHT22;53334;51.976;20.144;2022-09-09T12:31:41;25.30;54.80
36652;DHT22;53334;51.976;20.144;2022-09-09T12:34:32;25.30;54.90
36652;DHT22;53334;51.976;20.144;2022-09-09T12:37:17;25.40;55.00
36652;DHT22;53334;51.976;20.144;2022-09-09T12:39:57;25.40;54.90
36652;DHT22;53334;51.976;20.144;2022-09-09T12:42:40;25.40;54.70
36652;DHT22;53334;51.976;20.144;2022-09-09T12:45:18;25.40;54.60
36652;DHT22;53334;51.976;20.144;2022-09-09T12:47:55;25.40;54.50
36652;DHT22;53334;51.976;20.144;2022-09-09T12:50:32;25.40;54.40
36652;DHT22;53334;51.976;20.144;2022-09-09T12:53:10;25.40;54.40
36652;DHT22;53334;51.976;20.144;2022-09-09T12:55:52;25.40;54.30
36652;DHT22;53334;51.976;20.144;2022-09-09T12:58:27;25.40;54.20
36652;DHT22;53334;51.976;20.144;2022-09-09T13:01:05;25.40;54.20
36652;DHT22;53334;51.976;20.144;2022-09-09T13:03:42;25.40;54.10
36652;DHT22;53334;51.976;20.144;2022-09-09T13:06:22;25.40;54.10
36652;DHT22;53334;51.976;20.144;2022-09-09T13:09:01;25.30;53.90
36652;DHT22;53334;51.976;20.144;2022-09-09T13:11:41;25.30;53.90
36652;DHT22;53334;51.976;20.144;2022-09-09T13:14:17;25.30;53.90
36652;DHT22;53334;51.976;20.144;2022-09-09T13:16:57;25.30;53.80
36652;DHT22;53334;51.976;20.144;2022-09-09T13:19:35;25.30;54.00
36652;DHT22;53334;51.976;20.144;2022-09-09T13:22:13;25.30;54.00
36652;DHT22;53334;51.976;20.144;2022-09-09T13:24:59;25.30;54.00
36652;DHT22;53334;51.976;20.144;2022-09-09T13:27:38;25.30;54.00
36652;DHT22;53334;51.976;20.144;2022-09-09T13:30:24;25.30;53.90
36652;DHT22;53334;51.976;20.144;2022-09-09T13:33:18;25.30;53.90
36652;DHT22;53334;51.976;20.144;2022-09-09T13:35:56;25.30;53.90
36652;DHT22;53334;51.976;20.144;2022-09-09T13:38:33;25.30;54.00
36652;DHT22;53334;51.976;20.144;2022-09-09T13:41:09;25.30;54.00
36652;DHT22;53334;51.976;20.144;2022-09-09T13:43:46;25.30;54.00
36652;DHT22;53334;51.976;20.144;2022-09-09T13:46:32;25.30;53.90
36652;DHT22;53334;51.976;20.144;2022-09-09T13:49:20;25.30;53.90
36652;DHT22;53334;51.976;20.144;2022-09-09T13:52:04;25.30;53.90
36652;DHT22;53334;51.976;20.144;2022-09-09T13:54:40;25.30;53.90
36652;DHT22;53334;51.976;20.144;2022-09-09T13:57:16;25.30;53.90
36652;DHT22;53334;51.976;20.144;2022-09-09T13:59:53;25.30;53.80
36652;DHT22;53334;51.976;20.144;2022-09-09T14:02:37;25.30;53.80
36652;DHT22;53334;51.976;20.144;2022-09-09T14:05:13;25.30;53.80
36652;DHT22;53334;51.976;20.144;2022-09-09T14:07:48;25.30;53.80
36652;DHT22;53334;51.976;20.144;2022-09-09T14:10:24;25.30;53.80
36652;DHT22;53334;51.976;20.144;2022-09-09T14:12:58;25.30;53.80
36652;DHT22;53334;51.976;20.144;2022-09-09T14:15:34;25.30;54.20
36652;DHT22;53334;51.976;20.144;2022-09-09T14:18:11;25.30;54.10
36652;DHT22;53334;51.976;20.144;2022-09-09T14:20:45;25.30;54.20
36652;DHT22;53334;51.976;20.144;2022-09-09T14:23:19;25.30;54.30
36652;DHT22;53334;51.976;20.144;2022-09-09T14:25:54;25.30;54.30
36652;DHT22;53334;51.976;20.144;2022-09-09T14:28:28;25.30;54.30
36652;DHT22;53334;51.976;20.144;2022-09-09T14:31:24;25.30;54.30
36652;DHT22;53334;51.976;20.144;2022-09-09T14:33:58;25.30;54.20
36652;DHT22;53334;51.976;20.144;2022-09-09T14:36:32;25.30;54.20
36652;DHT22;53334;51.976;20.144;2022-09-09T14:39:06;25.30;54.20
36652;DHT22;53334;51.976;20.144;2022-09-09T14:41:40;25.30;54.20
36652;DHT22;53334;51.976;20.144;2022-09-09T14:44:13;25.30;54.20
36652;DHT22;53334;51.976;20.144;2022-09-09T14:46:49;25.30;54.20
36652;DHT22;53334;51.976;20.144;2022-09-09T14:49:23;25.30;54.20
36652;DHT22;53334;51.976;20.144;2022-09-09T14:51:57;25.20;54.10
36652;DHT22;53334;51.976;20.144;2022-09-09T14:54:31;25.20;54.10
36652;DHT22;53334;51.976;20.144;2022-09-09T14:57:05;25.30;54.20
36652;DHT22;53334;51.976;20.144;2022-09-09T14:59:39;25.30;54.20
36652;DHT22;53334;51.976;20.144;2022-09-09T15:02:14;25.20;54.10
36652;DHT22;53334;51.976;20.144;2022-09-09T15:04:48;25.20;54.10
36652;DHT22;53334;51.976;20.144;2022-09-09T15:07:25;25.20;54.20
36652;DHT22;53334;51.976;20.144;2022-09-09T15:10:00;25.20;54.20
36652;DHT22;53334;51.976;20.144;2022-09-09T15:12:34;25.20;54.10
36652;DHT22;53334;51.976;20.144;2022-09-09T15:15:09;25.20;54.10
36652;DHT22;53334;51.976;20.144;2022-09-09T15:17:44;25.20;54.10
36652;DHT22;53334;51.976;20.144;2022-09-09T15:20:18;25.20;54.10
36652;DHT22;53334;51.976;20.144;2022-09-09T15:22:52;25.20;54.10
36652;DHT22;53334;51.976;20.144;2022-09-09T15:25:26;25.20;54.20
36652;DHT22;53334;51.976;20.144;2022-09-09T15:27:59;25.20;54.20
36652;DHT22;53334;51.976;20.144;2022-09-09T15:30:33;25.20;54.40
36652;DHT22;53334;51.976;20.144;2022-09-09T15:33:09;25.20;54.40
36652;DHT22;53334;51.976;20.144;2022-09-09T15:35:44;25.20;54.70
36652;DHT22;53334;51.976;20.144;2022-09-09T15:38:18;25.20;54.70
36652;DHT22;53334;51.976;20.144;2022-09-09T15:40:53;25.20;54.70
36652;DHT22;53334;51.976;20.144;2022-09-09T15:43:28;25.20;54.90
36652;DHT22;53334;51.976;20.144;2022-09-09T15:46:05;25.20;55.10
36652;DHT22;53334;51.976;20.144;2022-09-09T15:48:49;25.20;55.10
36652;DHT22;53334;51.976;20.144;2022-09-09T15:51:26;25.30;55.30
36652;DHT22;53334;51.976;20.144;2022-09-09T15:54:17;25.30;55.30
36652;DHT22;53334;51.976;20.144;2022-09-09T15:56:54;25.30;55.50
36652;DHT22;53334;51.976;20.144;2022-09-09T15:59:30;25.30;55.40
36652;DHT22;53334;51.976;20.144;2022-09-09T16:02:05;25.30;55.40
36652;DHT22;53334;51.976;20.144;2022-09-09T16:04:41;25.30;55.30
36652;DHT22;53334;51.976;20.144;2022-09-09T16:07:15;25.30;55.20
36652;DHT22;53334;51.976;20.144;2022-09-09T16:09:49;25.30;55.20
36652;DHT22;53334;51.976;20.144;2022-09-09T16:12:25;25.30;55.10
36652;DHT22;53334;51.976;20.144;2022-09-09T16:14:59;25.30;55.20
36652;DHT22;53334;51.976;20.144;2022-09-09T16:17:33;25.30;55.30
36652;DHT22;53334;51.976;20.144;2022-09-09T16:20:11;25.30;55.50
36652;DHT22;53334;51.976;20.144;2022-09-09T16:22:46;25.30;55.50
36652;DHT22;53334;51.976;20.144;2022-09-09T16:25:20;25.30;55.30
36652;DHT22;53334;51.976;20.144;2022-09-09T16:27:54;25.30;55.30
36652;DHT22;53334;51.976;20.144;2022-09-09T16:30:28;25.30;55.10
36652;DHT22;53334;51.976;20.144;2022-09-09T16:34:13;25.30;54.80
36652;DHT22;53334;51.976;20.144;2022-09-09T16:36:48;25.20;55.20
36652;DHT22;53334;51.976;20.144;2022-09-09T16:39:22;25.30;55.20
36652;DHT22;53334;51.976;20.144;2022-09-09T16:41:56;25.20;55.30
36652;DHT22;53334;51.976;20.144;2022-09-09T16:44:31;25.20;55.40
36652;DHT22;53334;51.976;20.144;2022-09-09T16:47:05;25.20;55.40
36652;DHT22;53334;51.976;20.144;2022-09-09T16:49:40;25.20;55.30
36652;DHT22;53334;51.976;20.144;2022-09-09T16:52:14;25.20;55.30